Time;durP1;ratioP1;P1;durP2;ratioP2;P2;SDS_P1;SDS_P2;PMS_P1;PMS_P2;Temp;Humidity;BMP_temperature;BMP_pressure;BME280_temperature;BME280_humidity;BME280_pressure;Samples;Min_cycle;Max_cycle;Signal;HPM_P1;HPM_P2
2023/08/26 00:02:08;;;;;;;3.60;3.45;;;25.00;75.70;;;;;;5090753;28;43379;-76
2023/08/26 00:04:38;;;;;;;4.05;3.85;;;25.00;75.80;;;;;;5090432;28;45938;-77
2023/08/26 00:07:08;;;;;;;3.53;3.42;;;25.00;76.10;;;;;;5091476;27;43442;-76
2023/08/26 00:09:36;;;;;;;3.65;3.40;;;25.00;76.10;;;;;;5089300;27;43445;-77
2023/08/26 00:12:04;;;;;;;3.88;3.60;;;25.10;75.70;;;;;;5091788;28;43950;-77
2023/08/26 00:14:32;;;;;;;3.63;3.53;;;25.20;75.40;;;;;;5084416;28;44346;-77
2023/08/26 00:17:01;;;;;;;3.50;3.30;;;25.20;75.10;;;;;;5089473;28;43954;-77
2023/08/26 00:19:31;;;;;;;4.50;3.85;;;25.20;75.00;;;;;;5080596;28;43952;-76
2023/08/26 00:22:00;;;;;;;3.70;3.50;;;25.20;75.10;;;;;;5091954;28;43421;-76
2023/08/26 00:24:28;;;;;;;3.67;3.38;;;25.10;75.30;;;;;;5091055;27;43674;-76
2023/08/26 00:26:58;;;;;;;4.15;3.47;;;25.10;75.40;;;;;;5091415;28;43427;-76
2023/08/26 00:29:26;;;;;;;3.97;3.85;;;25.10;75.40;;;;;;5091762;28;43423;-77
2023/08/26 00:31:54;;;;;;;3.78;3.58;;;25.00;75.50;;;;;;5089413;28;43828;-77
2023/08/26 00:34:22;;;;;;;4.15;3.95;;;25.00;75.90;;;;;;5090212;28;43796;-77
2023/08/26 00:36:50;;;;;;;3.53;3.35;;;25.00;75.90;;;;;;5090102;28;44828;-77
2023/08/26 00:39:20;;;;;;;3.45;3.30;;;25.00;75.80;;;;;;5083129;27;43439;-76
2023/08/26 00:41:50;;;;;;;3.45;3.30;;;24.90;75.80;;;;;;5089697;28;43462;-76
2023/08/26 00:44:19;;;;;;;3.60;3.40;;;24.90;76.80;;;;;;5089442;28;45386;-77
2023/08/26 00:46:48;;;;;;;3.53;3.33;;;24.90;76.10;;;;;;5089217;27;44813;-76
2023/08/26 00:49:17;;;;;;;4.43;3.53;;;24.90;75.90;;;;;;5089780;28;43398;-77
2023/08/26 00:51:45;;;;;;;4.00;3.70;;;25.00;75.50;;;;;;5091631;27;43440;-77
2023/08/26 00:54:13;;;;;;;3.40;3.22;;;25.10;75.20;;;;;;5088651;27;45429;-77
2023/08/26 00:56:43;;;;;;;3.33;3.22;;;25.20;75.00;;;;;;5088950;28;44740;-77
2023/08/26 00:59:13;;;;;;;3.40;3.30;;;25.10;75.00;;;;;;5089244;28;43874;-77
2023/08/26 01:01:41;;;;;;;3.63;3.40;;;25.10;75.10;;;;;;5093469;22;43479;-77
2023/08/26 01:04:09;;;;;;;3.10;3.00;;;25.00;75.20;;;;;;5089801;27;46750;-76
2023/08/26 01:06:37;;;;;;;3.65;3.40;;;25.00;75.20;;;;;;5108315;27;45296;-75
2023/08/26 01:09:05;;;;;;;3.20;3.08;;;25.00;75.40;;;;;;5104983;27;43426;-75
2023/08/26 01:11:36;;;;;;;3.33;3.22;;;24.90;75.40;;;;;;5138558;27;43580;-76
2023/08/26 01:14:09;;;;;;;3.83;3.58;;;24.90;75.60;;;;;;5121421;27;45582;-75
2023/08/26 01:16:39;;;;;;;3.35;3.20;;;24.90;75.50;;;;;;5143088;27;45023;-76
2023/08/26 01:19:10;;;;;;;3.28;3.00;;;25.00;75.40;;;;;;5110417;27;43459;-76
2023/08/26 01:21:38;;;;;;;2.97;2.88;;;25.00;75.20;;;;;;5116807;27;43478;-76
2023/08/26 01:24:08;;;;;;;3.53;3.22;;;25.00;75.30;;;;;;5110974;27;45428;-76
2023/08/26 01:26:36;;;;;;;3.38;3.20;;;24.90;75.30;;;;;;5117966;27;45392;-76
2023/08/26 01:29:05;;;;;;;4.57;3.50;;;24.90;75.30;;;;;;5122776;27;43755;-76
2023/08/26 01:31:33;;;;;;;3.33;3.10;;;24.90;75.10;;;;;;5117744;27;43593;-76
2023/08/26 01:34:03;;;;;;;3.17;3.08;;;24.90;75.20;;;;;;5120429;27;45930;-75
2023/08/26 01:36:32;;;;;;;3.30;3.10;;;24.90;75.40;;;;;;5127809;27;44899;-76
2023/08/26 01:39:00;;;;;;;3.00;2.80;;;24.90;75.50;;;;;;5131047;27;43370;-76
2023/08/26 01:41:28;;;;;;;3.35;3.15;;;24.90;75.40;;;;;;5135431;27;43446;-76
2023/08/26 01:43:57;;;;;;;3.55;3.35;;;25.00;75.20;;;;;;5107222;27;45693;-76
2023/08/26 01:46:35;;;;;;;3.10;2.90;;;25.00;74.80;;;;;;5118402;27;44996;-76
2023/08/26 01:49:03;;;;;;;2.75;2.70;;;25.10;74.50;;;;;;5109785;27;43506;-76
2023/08/26 01:51:32;;;;;;;3.97;3.20;;;25.00;75.20;;;;;;5111827;27;43490;-76
2023/08/26 01:54:00;;;;;;;6.18;3.00;;;25.00;74.70;;;;;;5100954;27;44066;-75
2023/08/26 01:56:29;;;;;;;3.10;2.90;;;25.00;74.80;;;;;;5135248;27;43429;-75
2023/08/26 01:58:57;;;;;;;3.42;3.20;;;24.90;74.70;;;;;;5115465;27;43466;-76
2023/08/26 02:01:25;;;;;;;3.40;3.13;;;24.90;74.70;;;;;;5112405;27;43440;-76
2023/08/26 02:03:54;;;;;;;3.00;2.95;;;24.90;75.10;;;;;;5123305;27;44034;-75
2023/08/26 02:06:22;;;;;;;3.10;2.95;;;24.80;74.70;;;;;;5138139;27;44593;-76
2023/08/26 02:08:53;;;;;;;4.68;3.30;;;24.80;74.60;;;;;;5143430;27;43360;-75
2023/08/26 02:11:21;;;;;;;5.22;3.20;;;24.80;74.60;;;;;;5137813;27;43545;-76
2023/08/26 02:13:51;;;;;;;3.60;3.30;;;24.80;75.10;;;;;;5111373;27;44342;-77
2023/08/26 02:16:19;;;;;;;5.93;3.28;;;24.80;74.90;;;;;;5115545;27;43639;-78
2023/08/26 02:18:47;;;;;;;3.13;2.90;;;24.80;74.50;;;;;;5108950;27;43430;-78
2023/08/26 02:21:16;;;;;;;3.15;2.85;;;24.80;74.20;;;;;;5119454;27;43641;-78
2023/08/26 02:23:44;;;;;;;5.28;3.38;;;24.80;73.50;;;;;;5121982;27;44920;-77
2023/08/26 02:26:12;;;;;;;3.90;3.15;;;24.90;73.30;;;;;;5114154;27;44680;-77
2023/08/26 02:28:40;;;;;;;3.28;3.10;;;25.00;72.80;;;;;;5127961;27;43380;-77
2023/08/26 02:31:09;;;;;;;3.03;2.72;;;25.00;72.80;;;;;;5111979;27;43464;-78
2023/08/26 02:33:39;;;;;;;2.80;2.65;;;25.00;73.30;;;;;;5120602;27;46126;-77
2023/08/26 02:36:07;;;;;;;2.55;2.50;;;24.90;72.90;;;;;;5123190;27;44688;-77
2023/08/26 02:38:35;;;;;;;3.75;2.97;;;24.90;72.60;;;;;;5120937;27;43954;-77
2023/08/26 02:41:04;;;;;;;3.17;2.70;;;24.90;73.20;;;;;;5094511;27;43958;-78
2023/08/26 02:43:33;;;;;;;2.83;2.65;;;24.80;73.70;;;;;;5140815;27;45476;-77
2023/08/26 02:46:01;;;;;;;2.70;2.60;;;24.80;72.50;;;;;;5113149;27;44578;-77
2023/08/26 02:48:34;;;;;;;2.72;2.53;;;24.80;72.30;;;;;;5108950;27;43459;-77
2023/08/26 02:51:02;;;;;;;2.90;2.70;;;24.70;73.00;;;;;;5117259;27;43818;-77
2023/08/26 02:53:32;;;;;;;2.30;2.20;;;24.70;74.40;;;;;;5117455;27;45980;-78
2023/08/26 02:56:00;;;;;;;2.67;2.45;;;24.70;72.70;;;;;;5111142;27;43397;-77
2023/08/26 02:58:28;;;;;;;2.35;2.25;;;24.70;71.90;;;;;;5121504;27;43910;-77
2023/08/26 03:01:01;;;;;;;2.70;2.50;;;24.70;71.60;;;;;;5117078;27;43632;-78
2023/08/26 03:03:30;;;;;;;2.30;2.20;;;24.80;71.10;;;;;;5096321;27;45486;-78
2023/08/26 03:06:00;;;;;;;2.35;2.25;;;24.90;70.60;;;;;;5119618;27;43463;-77
2023/08/26 03:08:28;;;;;;;2.30;2.20;;;25.00;70.30;;;;;;5090301;27;43469;-76
2023/08/26 03:10:57;;;;;;;2.15;2.15;;;24.90;70.80;;;;;;5120250;27;43439;-77
2023/08/26 03:13:25;;;;;;;2.63;2.50;;;24.90;71.20;;;;;;5103855;27;45662;-78
2023/08/26 03:15:53;;;;;;;2.13;2.10;;;24.80;70.70;;;;;;5110654;27;44639;-78
2023/08/26 03:18:21;;;;;;;1.85;1.85;;;24.80;70.80;;;;;;5107893;27;43547;-77
2023/08/26 03:20:50;;;;;;;2.15;2.05;;;24.80;71.90;;;;;;5132954;27;43618;-78
2023/08/26 03:23:20;;;;;;;1.90;1.80;;;24.80;71.90;;;;;;5101891;27;45943;-73
2023/08/26 03:25:48;;;;;;;2.17;2.08;;;24.70;71.20;;;;;;5104571;27;44426;-75
2023/08/26 03:28:18;;;;;;;1.75;1.75;;;24.70;71.30;;;;;;5117517;27;43527;-75
2023/08/26 03:30:46;;;;;;;1.88;1.85;;;24.70;72.40;;;;;;5105144;27;43676;-72
2023/08/26 03:33:14;;;;;;;1.98;1.88;;;24.70;72.20;;;;;;5104129;27;45644;-73
2023/08/26 03:35:42;;;;;;;2.72;1.90;;;24.70;71.00;;;;;;5098739;27;45170;-73
2023/08/26 03:38:11;;;;;;;2.00;1.90;;;24.70;71.00;;;;;;5100889;27;44057;-73
2023/08/26 03:40:40;;;;;;;2.08;1.98;;;24.70;70.60;;;;;;5110422;27;43985;-73
2023/08/26 03:43:11;;;;;;;1.83;1.80;;;24.80;70.20;;;;;;5111406;27;44693;-73
2023/08/26 03:45:40;;;;;;;1.75;1.75;;;24.90;69.80;;;;;;5127171;27;45200;-74
2023/08/26 03:48:08;;;;;;;1.80;1.70;;;24.90;70.10;;;;;;5110727;27;43556;-73
2023/08/26 03:50:38;;;;;;;2.13;1.92;;;24.80;70.90;;;;;;5100527;27;43478;-73
2023/08/26 03:53:06;;;;;;;2.40;2.20;;;24.80;70.00;;;;;;5108783;27;45661;-73
2023/08/26 03:55:36;;;;;;;2.28;2.15;;;24.80;69.90;;;;;;5111254;27;44720;-72
2023/08/26 03:58:06;;;;;;;2.20;1.80;;;24.80;70.50;;;;;;5106306;27;43431;-74
2023/08/26 04:00:35;;;;;;;3.17;1.70;;;24.80;71.60;;;;;;5101738;27;43775;-73
2023/08/26 04:03:10;;;;;;;1.83;1.73;;;24.70;70.30;;;;;;5122265;27;43796;-73
2023/08/26 04:05:40;;;;;;;3.25;2.25;;;24.70;70.20;;;;;;5107142;27;44716;-72
2023/08/26 04:08:08;;;;;;;1.88;1.77;;;24.70;71.00;;;;;;5111928;27;43956;-73
2023/08/26 04:10:37;;;;;;;1.90;1.75;;;24.60;71.80;;;;;;5111020;27;43701;-75
2023/08/26 04:13:21;;;;;;;1.85;1.80;;;24.60;70.90;;;;;;5105413;27;45603;-74
2023/08/26 04:15:49;;;;;;;2.00;1.90;;;24.60;70.30;;;;;;5126650;27;43971;-73
2023/08/26 04:18:17;;;;;;;2.30;2.28;;;24.70;70.10;;;;;;5109070;27;43491;-75
2023/08/26 04:20:46;;;;;;;3.10;1.92;;;24.80;70.10;;;;;;5116665;27;43664;-73
2023/08/26 04:23:14;;;;;;;1.88;1.88;;;24.80;69.60;;;;;;5134834;27;44009;-73
2023/08/26 04:25:43;;;;;;;2.25;2.15;;;24.80;69.60;;;;;;5106326;27;44972;-73
2023/08/26 04:28:14;;;;;;;2.22;2.00;;;24.80;70.40;;;;;;5107557;27;43754;-73
2023/08/26 04:30:45;;;;;;;2.85;1.98;;;24.70;70.30;;;;;;5126559;27;43472;-72
2023/08/26 04:33:13;;;;;;;1.85;1.83;;;24.70;69.80;;;;;;5091897;27;45936;-76
2023/08/26 04:35:42;;;;;;;2.17;2.08;;;24.70;69.80;;;;;;5106683;27;43593;-76
2023/08/26 04:38:13;;;;;;;2.75;1.90;;;24.70;70.90;;;;;;5096924;27;44657;-76
2023/08/26 04:40:42;;;;;;;1.80;1.80;;;24.70;71.40;;;;;;5109116;27;43990;-76
2023/08/26 04:43:10;;;;;;;1.92;1.83;;;24.60;70.10;;;;;;5120907;27;44040;-76
2023/08/26 04:45:39;;;;;;;2.00;1.90;;;24.60;70.00;;;;;;5108722;27;45094;-76
2023/08/26 04:48:09;;;;;;;1.80;1.80;;;24.70;69.60;;;;;;5093117;27;43432;-76
2023/08/26 04:50:37;;;;;;;2.10;2.00;;;24.70;69.40;;;;;;5103692;27;43684;-72
2023/08/26 04:53:05;;;;;;;1.98;1.98;;;24.70;70.10;;;;;;5097360;27;45580;-77
2023/08/26 04:55:33;;;;;;;1.90;1.80;;;24.70;70.20;;;;;;5111788;27;43474;-76
2023/08/26 04:58:03;;;;;;;2.72;1.98;;;24.70;69.50;;;;;;5108562;27;43419;-77
2023/08/26 05:00:31;;;;;;;2.28;2.17;;;24.60;69.40;;;;;;5118704;27;43567;-77
2023/08/26 05:03:00;;;;;;;1.90;1.80;;;24.70;70.20;;;;;;5104969;27;44368;-75
2023/08/26 05:05:29;;;;;;;2.25;2.15;;;24.60;70.80;;;;;;5104051;27;44453;-74
2023/08/26 05:07:57;;;;;;;1.80;1.80;;;24.60;69.60;;;;;;5114626;27;43515;-77
2023/08/26 05:10:26;;;;;;;2.08;2.03;;;24.60;69.40;;;;;;5105225;27;43538;-75
2023/08/26 05:12:54;;;;;;;2.03;1.77;;;24.60;69.10;;;;;;5092120;27;45689;-75
2023/08/26 05:15:22;;;;;;;1.77;1.77;;;24.70;68.90;;;;;;5102671;27;43458;-74
2023/08/26 05:17:50;;;;;;;2.33;1.95;;;24.70;69.10;;;;;;5112874;27;43445;-76
2023/08/26 05:20:20;;;;;;;1.75;1.65;;;24.70;69.70;;;;;;5104845;27;43544;-76
2023/08/26 05:22:49;;;;;;;1.80;1.80;;;24.60;68.70;;;;;;5087014;27;44235;-75
2023/08/26 05:25:19;;;;;;;2.05;1.92;;;24.60;68.70;;;;;;5095442;27;44482;-75
2023/08/26 05:27:48;;;;;;;1.75;1.75;;;24.60;69.10;;;;;;5119317;27;43495;-75
2023/08/26 05:30:20;;;;;;;3.28;1.80;;;24.60;70.30;;;;;;5097171;27;44653;-76
2023/08/26 05:32:53;;;;;;;2.45;1.77;;;24.50;68.80;;;;;;5102140;27;43875;-77
2023/08/26 05:35:21;;;;;;;1.90;1.80;;;24.50;68.60;;;;;;5117772;27;43420;-77
2023/08/26 05:37:51;;;;;;;2.00;1.90;;;24.50;69.40;;;;;;5111411;27;43442;-77
2023/08/26 05:40:26;;;;;;;11.85;2.45;;;24.60;70.30;;;;;;5113774;27;43601;-77
2023/08/26 05:42:56;;;;;;;16.45;2.70;;;24.50;69.10;;;;;;5118433;27;43818;-77
2023/08/26 05:45:26;;;;;;;5.95;2.08;;;24.50;68.80;;;;;;5118837;27;43408;-76
2023/08/26 05:47:54;;;;;;;4.60;1.80;;;24.60;68.30;;;;;;5103810;27;43491;-78
2023/08/26 05:50:24;;;;;;;6.28;1.88;;;24.70;68.30;;;;;;5104975;27;44752;-76
2023/08/26 05:52:53;;;;;;;5.43;1.90;;;24.80;68.30;;;;;;5104835;27;45805;-76
2023/08/26 05:55:21;;;;;;;2.63;1.90;;;24.90;68.70;;;;;;5103769;27;44720;-75
2023/08/26 05:57:49;;;;;;;3.20;1.80;;;24.90;69.30;;;;;;5095194;27;43987;-78
2023/08/26 06:00:18;;;;;;;5.40;2.05;;;24.80;69.70;;;;;;5115747;27;43613;-77
2023/08/26 06:02:49;;;;;;;2.58;1.80;;;24.80;70.40;;;;;;5100897;27;45952;-77
2023/08/26 06:05:22;;;;;;;2.00;1.90;;;24.70;70.60;;;;;;5121076;27;45868;-77
2023/08/26 06:07:51;;;;;;;1.90;1.80;;;24.70;70.90;;;;;;5130694;27;43899;-77
2023/08/26 06:10:24;;;;;;;3.85;1.70;;;24.70;70.70;;;;;;5112146;27;43480;-76
2023/08/26 06:12:52;;;;;;;2.00;1.88;;;24.70;71.90;;;;;;5119639;27;45727;-77
2023/08/26 06:15:21;;;;;;;1.92;1.65;;;24.60;72.00;;;;;;5121623;27;45126;-77
2023/08/26 06:17:49;;;;;;;1.70;1.70;;;24.60;72.20;;;;;;5103952;27;44007;-77
2023/08/26 06:20:22;;;;;;;2.42;1.70;;;24.60;71.90;;;;;;5125130;27;43582;-77
2023/08/26 06:22:50;;;;;;;1.75;1.75;;;24.50;72.70;;;;;;5128294;27;45140;-77
2023/08/26 06:25:18;;;;;;;2.00;1.90;;;24.50;72.70;;;;;;5111495;27;44645;-77
2023/08/26 06:27:49;;;;;;;2.08;1.83;;;24.60;72.50;;;;;;5125343;27;43493;-77
2023/08/26 06:30:18;;;;;;;1.75;1.75;;;24.70;72.20;;;;;;5123426;27;43419;-77
2023/08/26 06:32:46;;;;;;;1.73;1.63;;;24.80;72.10;;;;;;5125852;27;43801;-77
2023/08/26 06:35:16;;;;;;;1.80;1.80;;;24.80;72.20;;;;;;5128850;27;43358;-77
2023/08/26 06:37:44;;;;;;;1.80;1.70;;;24.80;72.20;;;;;;5130045;27;43522;-77
2023/08/26 06:40:15;;;;;;;1.65;1.65;;;24.80;72.50;;;;;;5124935;27;43402;-77
2023/08/26 06:42:43;;;;;;;1.50;1.50;;;24.70;72.70;;;;;;5111770;27;44732;-77
2023/08/26 06:45:18;;;;;;;1.65;1.65;;;24.70;72.90;;;;;;5132965;27;43405;-76
2023/08/26 06:47:46;;;;;;;2.25;1.65;;;24.70;73.00;;;;;;5112176;27;44005;-76
2023/08/26 06:50:15;;;;;;;1.80;1.80;;;24.60;72.70;;;;;;5132416;27;43651;-77
2023/08/26 06:52:45;;;;;;;1.60;1.50;;;24.60;73.40;;;;;;5131816;27;43841;-76
2023/08/26 06:55:13;;;;;;;1.77;1.70;;;24.60;73.50;;;;;;5118493;27;44377;-78
2023/08/26 06:57:41;;;;;;;1.65;1.65;;;24.60;73.60;;;;;;5131020;27;43415;-78
2023/08/26 07:00:10;;;;;;;1.60;1.60;;;24.50;72.90;;;;;;5132474;27;43882;-77
2023/08/26 07:02:40;;;;;;;1.60;1.50;;;24.50;73.90;;;;;;5134046;27;43616;-78
2023/08/26 07:05:09;;;;;;;2.70;1.50;;;24.50;73.70;;;;;;5128260;27;44423;-78
2023/08/26 07:07:37;;;;;;;1.40;1.40;;;24.60;73.40;;;;;;5122490;27;43499;-78
2023/08/26 07:10:06;;;;;;;1.35;1.35;;;24.70;73.10;;;;;;5135141;27;44040;-77
2023/08/26 07:12:34;;;;;;;3.50;1.48;;;24.80;72.90;;;;;;5133379;27;43600;-77
2023/08/26 07:15:03;;;;;;;1.42;1.30;;;24.80;72.80;;;;;;5134742;27;43519;-77
2023/08/26 07:17:31;;;;;;;1.75;1.50;;;24.80;72.90;;;;;;5122442;27;43542;-78
2023/08/26 07:20:00;;;;;;;1.67;1.63;;;24.80;73.20;;;;;;5128057;27;43625;-79
2023/08/26 07:22:28;;;;;;;1.75;1.25;;;24.70;73.30;;;;;;5116275;27;45699;-77
2023/08/26 07:24:57;;;;;;;1.63;1.40;;;24.70;73.50;;;;;;5105421;27;43866;-77
2023/08/26 07:27:25;;;;;;;1.60;1.60;;;24.70;73.50;;;;;;5131071;27;43314;-78
2023/08/26 07:29:54;;;;;;;1.50;1.50;;;24.60;73.60;;;;;;5118126;27;43498;-78
2023/08/26 07:32:22;;;;;;;1.52;1.52;;;24.60;74.00;;;;;;5104644;27;45668;-79
2023/08/26 07:34:52;;;;;;;1.40;1.40;;;24.60;73.90;;;;;;5102513;27;44589;-77
2023/08/26 07:37:21;;;;;;;1.40;1.40;;;24.60;73.90;;;;;;5125227;27;43472;-76
2023/08/26 07:39:49;;;;;;;1.50;1.50;;;24.50;73.50;;;;;;5131331;27;43435;-80
2023/08/26 07:42:17;;;;;;;1.50;1.50;;;24.50;74.50;;;;;;5130410;27;43871;-79
2023/08/26 07:44:46;;;;;;;1.30;1.30;;;24.60;74.30;;;;;;5114225;27;44409;-76
2023/08/26 07:47:14;;;;;;;1.50;1.42;;;24.60;73.80;;;;;;5130487;27;43390;-77
2023/08/26 07:49:42;;;;;;;1.45;1.40;;;24.70;73.40;;;;;;5126459;27;43491;-79
2023/08/26 07:52:10;;;;;;;3.35;1.50;;;24.80;73.10;;;;;;5104484;27;45756;-80
2023/08/26 07:54:40;;;;;;;1.88;1.75;;;24.80;73.10;;;;;;5128582;27;43411;-77
2023/08/26 07:57:08;;;;;;;1.80;1.70;;;24.80;71.70;;;;;;5101846;27;44073;-77
2023/08/26 07:59:36;;;;;;;5.20;1.60;;;24.70;69.90;;;;;;5112802;27;43418;-77
2023/08/26 08:02:04;;;;;;;4.05;1.67;;;24.70;68.40;;;;;;5133143;27;45714;-80
2023/08/26 08:04:32;;;;;;;2.40;2.05;;;24.60;68.90;;;;;;5129849;27;43547;-80
2023/08/26 08:07:01;;;;;;;1.40;1.40;;;24.60;70.10;;;;;;5116252;27;43449;-79
2023/08/26 08:09:29;;;;;;;5.28;1.80;;;24.60;69.60;;;;;;5112557;27;43438;-78
2023/08/26 08:11:58;;;;;;;4.03;1.80;;;24.50;68.80;;;;;;5112834;27;43610;-79
2023/08/26 08:14:26;;;;;;;3.95;1.63;;;24.50;69.10;;;;;;5105965;27;44705;-78
2023/08/26 08:16:55;;;;;;;3.38;1.70;;;24.50;69.90;;;;;;5113133;27;43409;-79
2023/08/26 08:19:23;;;;;;;3.08;1.73;;;24.40;69.90;;;;;;5128615;27;43437;-77
2023/08/26 08:21:51;;;;;;;1.83;1.67;;;24.40;68.30;;;;;;5129312;27;43590;-78
2023/08/26 08:24:19;;;;;;;1.52;1.52;;;24.50;68.30;;;;;;5129417;27;43402;-80
2023/08/26 08:26:47;;;;;;;1.50;1.40;;;24.50;68.20;;;;;;5107333;27;43447;-79
2023/08/26 08:29:16;;;;;;;2.67;1.77;;;24.70;68.00;;;;;;5126576;27;43459;-79
2023/08/26 08:31:45;;;;;;;2.72;1.70;;;24.70;67.70;;;;;;5129478;27;43773;-77
2023/08/26 08:34:13;;;;;;;1.55;1.55;;;24.70;67.60;;;;;;5113240;27;45090;-80
2023/08/26 08:36:41;;;;;;;2.03;1.92;;;24.70;68.20;;;;;;5115497;27;43442;-79
2023/08/26 08:39:09;;;;;;;8.38;2.00;;;24.60;68.20;;;;;;5128069;27;43354;-78
2023/08/26 08:41:37;;;;;;;2.97;1.80;;;24.60;68.50;;;;;;5107427;27;45674;-78
2023/08/26 08:44:10;;;;;;;3.10;1.55;;;24.60;68.90;;;;;;5111560;27;45441;-78
2023/08/26 08:46:40;;;;;;;2.47;1.77;;;24.50;69.10;;;;;;5113580;27;43573;-78
2023/08/26 08:49:08;;;;;;;5.28;1.85;;;24.50;69.10;;;;;;5125805;27;43447;-76
2023/08/26 08:51:36;;;;;;;1.88;1.77;;;24.50;68.90;;;;;;5127097;27;44829;-77
2023/08/26 08:54:04;;;;;;;1.90;1.80;;;24.50;68.80;;;;;;5105480;27;44842;-77
2023/08/26 08:56:33;;;;;;;1.55;1.45;;;24.40;69.10;;;;;;5119112;27;43363;-77
2023/08/26 08:59:01;;;;;;;2.42;1.50;;;24.40;69.10;;;;;;5095560;27;43526;-78
2023/08/26 09:01:30;;;;;;;1.42;1.42;;;24.40;68.20;;;;;;5107256;27;45977;-78
2023/08/26 09:03:59;;;;;;;1.92;1.83;;;24.50;67.60;;;;;;5111796;27;43431;-78
2023/08/26 09:06:28;;;;;;;3.50;1.90;;;24.50;66.90;;;;;;5121788;27;43413;-78
2023/08/26 09:08:58;;;;;;;1.60;1.52;;;24.60;66.90;;;;;;5114372;27;43660;-78
2023/08/26 09:11:28;;;;;;;3.58;1.55;;;24.70;66.30;;;;;;5117016;27;46741;-78
2023/08/26 09:13:56;;;;;;;2.10;1.90;;;24.70;66.50;;;;;;5122449;27;43519;-78
2023/08/26 09:16:28;;;;;;;1.83;1.70;;;24.60;67.50;;;;;;5125481;27;43418;-78
2023/08/26 09:18:57;;;;;;;1.88;1.70;;;24.60;66.20;;;;;;5108121;27;43534;-78
2023/08/26 09:21:33;;;;;;;1.80;1.70;;;24.50;66.30;;;;;;5121633;27;43859;-78
2023/08/26 09:24:01;;;;;;;1.60;1.58;;;24.50;67.00;;;;;;5091743;27;45175;-76
2023/08/26 09:26:29;;;;;;;1.83;1.73;;;24.40;67.50;;;;;;5124647;27;43369;-78
2023/08/26 09:28:57;;;;;;;1.60;1.50;;;24.40;66.70;;;;;;5121415;27;44096;-77
2023/08/26 09:31:25;;;;;;;1.60;1.50;;;24.40;66.60;;;;;;5115625;27;45759;-77
2023/08/26 09:34:01;;;;;;;1.30;1.30;;;24.40;67.00;;;;;;5118671;27;44737;-77
2023/08/26 09:36:40;;;;;;;2.00;1.77;;;24.40;67.70;;;;;;5129238;27;43384;-77
2023/08/26 09:39:13;;;;;;;1.98;1.75;;;24.40;67.40;;;;;;5127635;27;43442;-78
2023/08/26 09:41:42;;;;;;;1.60;1.50;;;24.30;66.50;;;;;;5128498;27;43944;-77
2023/08/26 09:44:10;;;;;;;3.08;2.17;;;24.40;66.20;;;;;;5124657;27;44468;-78
2023/08/26 09:46:39;;;;;;;1.88;1.75;;;24.50;66.00;;;;;;5118139;27;43642;-77
2023/08/26 09:49:07;;;;;;;3.08;1.80;;;24.50;65.70;;;;;;5122047;27;43569;-78
2023/08/26 09:51:36;;;;;;;3.60;1.70;;;24.60;65.50;;;;;;5120257;27;45629;-77
2023/08/26 09:54:06;;;;;;;1.83;1.73;;;24.60;66.10;;;;;;5108078;27;45275;-77
2023/08/26 09:56:34;;;;;;;2.30;1.85;;;24.50;66.50;;;;;;5118335;27;43329;-76
2023/08/26 09:59:03;;;;;;;1.90;1.80;;;24.50;65.30;;;;;;5115300;27;43568;-77
2023/08/26 10:01:31;;;;;;;1.50;1.50;;;24.40;65.40;;;;;;5122700;27;43902;-76
2023/08/26 10:04:04;;;;;;;1.58;1.58;;;24.40;66.40;;;;;;5115229;27;44573;-77
2023/08/26 10:06:34;;;;;;;1.80;1.70;;;24.40;66.80;;;;;;5113129;27;43449;-78
2023/08/26 10:09:08;;;;;;;1.95;1.83;;;24.40;66.30;;;;;;5128608;27;43484;-78
2023/08/26 10:11:38;;;;;;;2.15;1.73;;;24.40;66.20;;;;;;5120243;27;46229;-77
2023/08/26 10:14:08;;;;;;;1.70;1.60;;;24.40;66.80;;;;;;5128914;27;43483;-78
2023/08/26 10:16:36;;;;;;;1.95;1.85;;;24.30;67.10;;;;;;5128579;27;43433;-78
2023/08/26 10:19:04;;;;;;;2.13;2.03;;;24.30;67.00;;;;;;5128874;27;43435;-78
2023/08/26 10:21:32;;;;;;;1.70;1.70;;;24.30;66.30;;;;;;5122151;27;45622;-78
2023/08/26 10:24:02;;;;;;;1.80;1.70;;;24.30;66.10;;;;;;5115090;27;43380;-71
2023/08/26 10:26:31;;;;;;;1.67;1.67;;;24.40;66.70;;;;;;5128593;27;43469;-72
2023/08/26 10:29:00;;;;;;;1.85;1.75;;;24.50;65.40;;;;;;5129047;27;43451;-72
2023/08/26 10:31:33;;;;;;;3.00;2.00;;;24.60;65.40;;;;;;5116190;27;45742;-72
2023/08/26 10:34:02;;;;;;;3.42;1.73;;;24.60;65.50;;;;;;5128767;27;43374;-72
2023/08/26 10:36:30;;;;;;;4.75;2.00;;;24.60;66.20;;;;;;5118175;27;43939;-74
2023/08/26 10:38:59;;;;;;;4.05;2.40;;;24.50;65.80;;;;;;5109432;27;43477;-73
2023/08/26 10:41:27;;;;;;;4.65;2.22;;;24.50;65.30;;;;;;5117942;27;43619;-72
2023/08/26 10:43:58;;;;;;;3.00;1.80;;;24.50;66.30;;;;;;5122467;27;43482;-75
2023/08/26 10:46:33;;;;;;;6.35;2.45;;;24.40;66.80;;;;;;5119181;27;43496;-72
2023/08/26 10:49:04;;;;;;;4.75;2.63;;;24.40;65.80;;;;;;5126075;27;43564;-74
2023/08/26 10:51:33;;;;;;;7.25;2.55;;;24.40;65.10;;;;;;5116847;27;46050;-73
2023/08/26 10:54:02;;;;;;;4.25;2.30;;;24.30;66.20;;;;;;5125150;27;44723;-74
2023/08/26 10:56:33;;;;;;;3.35;2.42;;;24.40;67.10;;;;;;5114774;27;43450;-73
2023/08/26 10:59:03;;;;;;;5.03;2.47;;;24.30;67.10;;;;;;5100261;27;43987;-73
2023/08/26 11:01:34;;;;;;;3.35;2.53;;;24.30;66.60;;;;;;5114837;27;45599;-74
2023/08/26 11:04:04;;;;;;;3.92;2.50;;;24.40;66.40;;;;;;5116629;27;44775;-73
2023/08/26 11:06:37;;;;;;;4.90;2.40;;;24.40;65.90;;;;;;5122800;27;44007;-72
2023/08/26 11:09:05;;;;;;;2.47;2.28;;;24.50;65.60;;;;;;5119120;27;43606;-74
2023/08/26 11:11:33;;;;;;;3.00;2.70;;;24.60;65.70;;;;;;5128899;27;43767;-73
2023/08/26 11:14:03;;;;;;;3.45;2.35;;;24.60;66.10;;;;;;5125600;27;44633;-73
2023/08/26 11:16:31;;;;;;;3.67;2.53;;;24.50;66.60;;;;;;5126958;27;43367;-73
2023/08/26 11:19:00;;;;;;;4.88;2.50;;;24.50;66.30;;;;;;5133500;27;43446;-73
2023/08/26 11:21:28;;;;;;;5.40;2.22;;;24.50;66.90;;;;;;5111339;27;45683;-73
2023/08/26 11:23:56;;;;;;;3.88;2.33;;;24.40;67.50;;;;;;5110271;27;45513;-72
2023/08/26 11:26:24;;;;;;;26.60;3.42;;;24.40;67.80;;;;;;5112275;27;43433;-72
2023/08/26 11:28:52;;;;;;;50.13;5.82;;;24.40;67.50;;;;;;5118658;27;43495;-73
2023/08/26 11:31:22;;;;;;;15.23;3.05;;;24.40;67.70;;;;;;5122648;27;44946;-73
2023/08/26 11:33:50;;;;;;;6.32;2.10;;;24.40;67.80;;;;;;5131359;27;43493;-78
2023/08/26 11:36:20;;;;;;;6.03;2.83;;;24.30;68.10;;;;;;5130932;27;43340;-77
2023/08/26 11:38:49;;;;;;;9.40;2.45;;;24.30;67.80;;;;;;5131014;27;43363;-78
2023/08/26 11:41:17;;;;;;;5.70;2.05;;;24.30;66.20;;;;;;5116076;27;44858;-78
2023/08/26 11:43:45;;;;;;;6.85;2.05;;;24.30;65.80;;;;;;5126838;27;43444;-78
2023/08/26 11:46:13;;;;;;;2.60;2.05;;;24.40;64.90;;;;;;5126461;27;44379;-77
2023/08/26 11:48:42;;;;;;;4.65;1.80;;;24.50;64.70;;;;;;5127554;27;43998;-78
2023/08/26 11:51:10;;;;;;;2.92;1.95;;;24.50;64.50;;;;;;5122294;27;46015;-77
2023/08/26 11:53:38;;;;;;;6.30;2.10;;;24.50;65.70;;;;;;5123523;27;44734;-78
2023/08/26 11:56:08;;;;;;;3.28;1.90;;;24.50;66.20;;;;;;5105264;27;43727;-78
2023/08/26 11:58:37;;;;;;;4.28;2.30;;;24.40;65.90;;;;;;5127538;27;43966;-78
2023/08/26 12:01:06;;;;;;;3.15;2.00;;;24.40;66.10;;;;;;5127617;27;44041;-78
2023/08/26 12:03:42;;;;;;;3.10;1.75;;;24.40;66.70;;;;;;5098375;27;45038;-77
2023/08/26 12:06:14;;;;;;;3.60;1.93;;;24.40;66.60;;;;;;5118040;27;43933;-77
2023/08/26 12:08:42;;;;;;;4.03;2.22;;;24.30;66.40;;;;;;5113959;27;44105;-78
2023/08/26 12:11:11;;;;;;;2.08;1.90;;;24.30;66.30;;;;;;5114494;27;43855;-78
2023/08/26 12:13:39;;;;;;;2.30;1.83;;;24.40;65.70;;;;;;5119561;27;43424;-78
2023/08/26 12:16:07;;;;;;;3.13;1.80;;;24.40;65.60;;;;;;5123192;27;43395;-78
2023/08/26 12:18:35;;;;;;;2.50;1.80;;;24.50;65.30;;;;;;5124375;27;43323;-77
2023/08/26 12:21:07;;;;;;;2.45;1.48;;;24.50;65.60;;;;;;5105486;27;45810;-78
2023/08/26 12:23:36;;;;;;;1.88;1.77;;;24.50;66.00;;;;;;5128149;27;43386;-78
2023/08/26 12:26:11;;;;;;;1.88;1.73;;;24.50;66.20;;;;;;5125407;27;43474;-78
2023/08/26 12:28:40;;;;;;;1.75;1.67;;;24.40;66.40;;;;;;5130495;27;43512;-78
2023/08/26 12:31:09;;;;;;;1.73;1.63;;;24.40;66.60;;;;;;5123166;27;45354;-77
2023/08/26 12:33:37;;;;;;;1.77;1.52;;;24.40;66.50;;;;;;5130388;27;43382;-78
2023/08/26 12:36:26;;;;;;;1.65;1.65;;;24.40;66.50;;;;;;5124438;27;43867;-78
2023/08/26 12:38:54;;;;;;;1.77;1.52;;;24.30;66.60;;;;;;5130673;27;44088;-78
2023/08/26 12:41:25;;;;;;;2.03;1.80;;;24.30;66.70;;;;;;5110263;27;45969;-79
2023/08/26 12:43:55;;;;;;;1.63;1.58;;;24.30;66.60;;;;;;5122647;27;44873;-77
2023/08/26 12:46:23;;;;;;;1.92;1.80;;;24.30;66.50;;;;;;5112916;27;43442;-76
2023/08/26 12:48:51;;;;;;;1.80;1.70;;;24.30;66.90;;;;;;5124889;27;43379;-76
2023/08/26 12:51:23;;;;;;;2.05;2.05;;;24.30;66.50;;;;;;5114784;27;47363;-76
2023/08/26 12:53:53;;;;;;;1.50;1.42;;;24.30;66.30;;;;;;5128791;27;43918;-76
2023/08/26 12:56:21;;;;;;;1.40;1.40;;;24.50;66.50;;;;;;5129559;27;43440;-76